Aztec, New Mexico
Current Conditions -  °F | °C
As of 6:53 AM on Saturday 25 Oct 2014 (Local Time) from KFMN Reporting Station
Clear Clear  
Wind Chill:   Ceiling: Unl
Heat Index:   Visibility: 10mi
Dew Point: -1°   Wind: 8mph
Humidity: 65%   Direction: 80°E
Pressure: 30.3"   Gusts: NA
Location:  36.83°N, 107.99°W
Report Text: KFMN 251253Z 08007KT 10SM CLR 05/M01 A3030 RMK AO2 SLP238 T00501011
Loading
Personal Weather Stations






























Interactive Weather Map
Tropical Storm Tracking
New forecast layout! Learn more

10-Day Weather Forecast

Advertisements
Track Severe Weather on mobile